Silver Hannah — V7IB4 — position and weather

sailwx.info

Track history (hours):
 
Tides and Currents Weather Stations Pressure Air Temp Water Temp Dewpoint Dewpoint Depression Visibility Wind Speed Wind Dir Waves Ship Positions

Silver Hannah

Last reported at 2017-Dec-11 17:00 UTC. Time now 2017-Dec-12 10:22 UTC.
Position N 35°33' E 139°60'.

Length 183 m; draft 7.5 m.

Type: Tanker. MMSI: 538005911.

Date/timePositionNaut miles runAvg speedWind from/ knotsBaromVisibWave heightAir tempDewpointWater temp
2017-Dec-11 17:00N 35°33' E 139°60'0 0.0
2017-Dec-11 16:30N 35°33' E 139°60'0 0.0
2017-Dec-11 15:59N 35°33' E 139°60'0 0.1
2017-Dec-11 15:30N 35°33' E 139°60'0 0.0
2017-Dec-11 15:00N 35°33' E 139°60'0 0.0
2017-Dec-11 14:30N 35°33' E 139°60'0 0.1
2017-Dec-11 14:00N 35°33' E 140°00'0 0.1
2017-Dec-11 13:30N 35°33' E 139°60'0 0.1
2017-Dec-11 13:00N 35°33' E 139°60'0 0.1
2017-Dec-11 12:30N 35°33' E 139°60'0 0.3
2017-Dec-11 11:55N 35°33' E 139°60'0 0.0
2017-Dec-11 11:28N 35°33' E 139°60'0 0.1
2017-Dec-11 11:00N 35°33' E 139°60'0 0.2
2017-Dec-11 10:30N 35°33' E 139°60'0 0.1
2017-Dec-11 09:48N 35°32' E 139°60'0 0.1
2017-Dec-11 09:30N 35°32' E 139°60'0 0.1
2017-Dec-11 09:00N 35°32' E 139°60'0 0.0
2017-Dec-11 08:30N 35°32' E 139°60'0 0.1
2017-Dec-11 08:00N 35°32' E 139°60'0 0.0
2017-Dec-11 07:30N 35°32' E 139°60'0 0.0
2017-Dec-11 07:00N 35°32' E 139°60'0 0.0
2017-Dec-11 06:30N 35°32' E 139°60'0 0.0
2017-Dec-11 06:00N 35°32' E 139°60'0 0.1
2017-Dec-11 05:30N 35°32' E 139°59'0 0.1
2017-Dec-11 05:00N 35°32' E 139°60'0 0.0
2017-Dec-11 04:30N 35°32' E 139°60'0 0.0
2017-Dec-11 04:00N 35°32' E 139°60'0 0.0
2017-Dec-11 03:30N 35°32' E 139°60'0 0.0
2017-Dec-11 03:00N 35°32' E 139°60'0 0.0
2017-Dec-11 02:31N 35°32' E 139°60'0 0.1
2017-Dec-11 02:00N 35°32' E 139°60'0 0.0
2017-Dec-11 01:30N 35°32' E 139°60'0 0.1
2017-Dec-11 01:01N 35°32' E 139°60'0 0.0
2017-Dec-11 00:30N 35°32' E 139°60'0 0.2
2017-Dec-11 00:01N 35°32' E 139°59'0 0.0
2017-Dec-10 23:30N 35°32' E 139°59'0 0.0
2017-Dec-10 23:00N 35°32' E 139°59'0 0.0
2017-Dec-10 22:30N 35°32' E 139°59'0 0.0
2017-Dec-10 22:00N 35°32' E 139°59'0 0.0
2017-Dec-10 21:30N 35°32' E 139°59'0 0.0
2017-Dec-10 21:00N 35°32' E 139°59'0 0.0
2017-Dec-10 20:29N 35°32' E 139°59'0 0.0
2017-Dec-10 20:00N 35°32' E 139°59'0 0.0
2017-Dec-10 19:30N 35°32' E 139°59'0 0.0
2017-Dec-10 19:00N 35°32' E 139°59'0 0.0
2017-Dec-10 18:30N 35°32' E 139°59'0 0.0
2017-Dec-10 17:58N 35°32' E 139°59'0 0.5
2017-Dec-10 17:30N 35°32' E 139°59'3 5.4
2017-Dec-10 17:00N 35°31' E 139°56'612.1
2017-Dec-10 16:30N 35°27' E 139°50'612.6
2017-Dec-10 16:00N 35°23' E 139°45'611.5
2017-Dec-10 15:31N 35°17' E 139°46'611.4
2017-Dec-10 15:00N 35°11' E 139°47'4 8.3
2017-Dec-10 14:30N 35°07' E 139°45'5 9.3
2017-Dec-10 14:00N 35°03' E 139°43'5 9.7
2017-Dec-10 13:30N 34°58' E 139°41'5 9.8
2017-Dec-10 12:59N 34°54' E 139°45'5 9.9
2017-Dec-10 12:30N 34°50' E 139°48'23 2.9
2017-Dec-10 04:28N 34°29' E 139°60'1 1.8
2017-Dec-10 03:58N 34°29' E 139°58'3 1.7
2017-Dec-10 02:04N 34°28' E 139°55'1 3.6
2017-Dec-10 01:53N 34°28' E 139°55'10 6.0
2017-Dec-10 00:13N 34°38' E 139°59'5 3.4
2017-Dec-09 22:47N 34°34' E 139°55'1 3.6
2017-Dec-09 22:30N 34°33' E 139°55'2 3.4
2017-Dec-09 22:00N 34°32' E 139°53'3 0.9
2017-Dec-09 18:00N 34°35' E 139°55'2 2.7
2017-Dec-09 17:25N 34°34' E 139°53'1 2.7
2017-Dec-09 17:00N 34°33' E 139°52'2 2.7
2017-Dec-09 16:24N 34°32' E 139°51'1 2.7
2017-Dec-09 15:56N 34°32' E 139°49'1 2.2
2017-Dec-09 15:30N 34°32' E 139°50'4 2.5
2017-Dec-09 13:52N 34°31' E 139°55'1 4.0
2017-Dec-09 13:31N 34°31' E 139°54'1 2.1
2017-Dec-09 12:54N 34°30' E 139°53'3 3.4
2017-Dec-09 12:00N 34°30' E 139°49'3 5.0
2017-Dec-09 11:29N 34°30' E 139°52'4 7.4
2017-Dec-09 11:00N 34°30' E 139°56'1 1.3
2017-Dec-09 10:30N 34°29' E 139°57'2 4.1
2017-Dec-09 09:57N 34°29' E 139°54'2 4.4
2017-Dec-09 09:30N 34°28' E 139°52'2 3.2
2017-Dec-09 08:50N 34°27' E 139°50'1 3.3
2017-Dec-09 08:24N 34°27' E 139°51'2 3.9
2017-Dec-09 08:00N 34°27' E 139°53'1 1.1
2017-Dec-09 06:46N 34°27' E 139°55'0 1.2
2017-Dec-09 06:28N 34°27' E 139°55'2 2.5
2017-Dec-09 05:28N 34°27' E 139°58'1 2.0
2017-Dec-09 04:55N 34°26' E 139°58'17 1.4
2017-Dec-08 16:52N 34°23' E 139°37'512.9
2017-Dec-08 16:28N 34°20' E 139°32'1513.0
2017-Dec-08 15:19N 34°16' E 139°15'515.3
2017-Dec-08 15:00N 34°17' E 139°09'2913.3
2017-Dec-08 12:49N 34°21' E 138°34'413.9
2017-Dec-08 12:30N 34°21' E 138°29'4 8.3
2017-Dec-08 12:00N 34°22' E 138°24'813.4
2017-Dec-08 11:26N 34°22' E 138°15'613.3
2017-Dec-08 10:58N 34°23' E 138°07'713.4
2017-Dec-08 10:28N 34°24' E 137°59'1413.6
2017-Dec-08 09:28N 34°26' E 137°43'713.3
2017-Dec-08 08:58N 34°26' E 137°35'612.8
2017-Dec-08 08:30N 34°26' E 137°28'1013.1
2017-Dec-08 07:44N 34°27' E 137°15'2112.0
2017-Dec-08 05:57N 34°38' E 136°53'612.8
2017-Dec-08 05:30N 34°42' E 136°48'612.7
2017-Dec-08 05:00N 34°48' E 136°46'612.5
2017-Dec-08 04:30N 34°54' E 136°46'612.4
2017-Dec-08 04:00N 34°60' E 136°49'1 2.1
2017-Dec-08 03:30N 34°60' E 136°51'0 0.0
2017-Dec-08 02:57N 34°60' E 136°51'0 0.0
2017-Dec-08 02:27N 34°60' E 136°51'0 0.0
2017-Dec-08 01:57N 34°60' E 136°51'0 0.0
2017-Dec-08 01:27N 34°60' E 136°51'0 0.0
2017-Dec-08 01:00N 34°60' E 136°51'0 0.0
2017-Dec-08 00:30N 34°60' E 136°51'0 0.0
2017-Dec-07 23:57N 34°60' E 136°51'0 0.0
2017-Dec-07 23:27N 34°60' E 136°51'0 0.0
2017-Dec-07 23:00N 34°60' E 136°51'0 0.0
2017-Dec-07 22:27N 34°60' E 136°51'0 0.0
2017-Dec-07 22:00N 34°60' E 136°51'0 0.0
2017-Dec-07 21:30N 34°60' E 136°51'0 0.0
2017-Dec-07 20:57N 34°60' E 136°51'0 0.0
2017-Dec-07 20:27N 34°60' E 136°51'0 0.0
2017-Dec-07 19:57N 34°60' E 136°51'0 0.0
2017-Dec-07 19:27N 34°60' E 136°51'0 0.0
2017-Dec-07 19:00N 34°60' E 136°51'0 0.0
2017-Dec-07 18:27N 34°60' E 136°51'0 0.0
2017-Dec-07 17:57N 34°60' E 136°51'0 0.0
2017-Dec-07 17:27N 34°60' E 136°51'0 0.0
2017-Dec-07 17:01N 34°60' E 136°51'0 0.0
2017-Dec-07 16:27N 34°60' E 136°51'0 0.0
2017-Dec-07 16:00N 34°60' E 136°51'0 0.0
2017-Dec-07 15:30N 34°60' E 136°51'0 0.0
2017-Dec-07 14:57N 34°60' E 136°51'0 0.0
2017-Dec-07 14:27N 34°60' E 136°51'0 0.0
2017-Dec-07 13:57N 34°60' E 136°51'0 0.0
2017-Dec-07 13:27N 34°60' E 136°51'0 0.0
2017-Dec-07 12:57N 34°60' E 136°51'0 0.0
2017-Dec-07 12:27N 34°60' E 136°51'0 0.0
2017-Dec-07 11:57N 34°60' E 136°51'0 0.0
2017-Dec-07 11:27N 34°60' E 136°51'0 0.0
2017-Dec-07 10:57N 34°60' E 136°51'0 0.0
2017-Dec-07 10:27N 34°60' E 136°51'0 0.0
2017-Dec-07 09:57N 34°60' E 136°51'0 0.0
2017-Dec-07 09:30N 34°60' E 136°51'0 0.0
2017-Dec-07 09:00N 34°60' E 136°51'0 0.0
2017-Dec-07 08:27N 34°60' E 136°51'0 0.0
2017-Dec-07 07:57N 34°60' E 136°51'0 0.0
2017-Dec-07 07:27N 34°60' E 136°51'0 0.0
2017-Dec-07 07:00N 34°60' E 136°51'0 0.0
2017-Dec-07 06:27N 34°60' E 136°51'0 0.0
2017-Dec-07 06:00N 34°60' E 136°51'0 0.0
2017-Dec-07 05:24N 34°60' E 136°51'0 0.0
2017-Dec-07 05:00N 34°60' E 136°51'0 0.0
2017-Dec-07 04:15N 34°60' E 136°51'0 0.0
2017-Dec-07 03:58N 34°60' E 136°51'0 0.0
2017-Dec-07 03:30N 34°60' E 136°51'0 0.0
2017-Dec-07 03:00N 34°60' E 136°51'0 0.0
2017-Dec-07 02:27N 34°60' E 136°51'0 0.0
2017-Dec-07 01:57N 34°60' E 136°51'0 0.0
2017-Dec-07 01:27N 34°60' E 136°51'0 0.0
2017-Dec-07 00:57N 34°60' E 136°51'0 0.0
2017-Dec-07 00:27N 34°60' E 136°51'0 0.0
2017-Dec-06 23:57N 34°60' E 136°51'0 0.9
2017-Dec-06 23:30N 35°00' E 136°50'4 7.1
2017-Dec-06 23:00N 34°57' E 136°48'4 8.8
2017-Dec-06 22:30N 34°54' E 136°45'0 0.7
2017-Dec-06 21:54N 34°54' E 136°44'0 0.0
2017-Dec-06 21:30N 34°54' E 136°44'0 0.0
2017-Dec-06 21:00N 34°54' E 136°44'  
2017-Dec-04 10:29N 41°38' E 141°20'713.9
2017-Dec-04 10:00N 41°38' E 141°11'714.2
2017-Dec-04 09:30N 41°38' E 141°01'612.6
2017-Dec-04 09:00N 41°39' E 140°53'613.0
2017-Dec-04 08:30N 41°38' E 140°44'713.8
2017-Dec-04 08:00N 41°32' E 140°40'714.4
2017-Dec-04 07:30N 41°28' E 140°33'714.9
2017-Dec-04 07:00N 41°24' E 140°24'714.4
2017-Dec-04 06:30N 41°20' E 140°16'4812.7
2017-Dec-04 02:44N 41°14' E 139°13'314.1
2017-Dec-04 02:30N 41°15' E 139°08'713.9
2017-Dec-04 02:00N 41°17' E 138°60'814.1
2017-Dec-04 01:28N 41°19' E 138°50'  
Track history (hours):
 
Tides and Currents Weather Stations Pressure Air Temp Water Temp Dewpoint Dewpoint Depression Visibility Wind Speed Wind Dir Waves Ship Positions

Silver Hannah

Last reported at 2017-Dec-11 17:00 UTC. Time now 2017-Dec-12 10:22 UTC.
Position N 35°33' E 139°60'.

Length 183 m; draft 7.5 m.

Type: Tanker. MMSI: 538005911.

Date/timePositionNaut miles runAvg speedWind from/ knotsBaromVisibWave heightAir tempDewpointWater temp
2017-Dec-11 17:00N 35°33' E 139°60'0 0.0
2017-Dec-11 16:30N 35°33' E 139°60'0 0.0
2017-Dec-11 15:59N 35°33' E 139°60'0 0.1
2017-Dec-11 15:30N 35°33' E 139°60'0 0.0
2017-Dec-11 15:00N 35°33' E 139°60'0 0.0
2017-Dec-11 14:30N 35°33' E 139°60'0 0.1
2017-Dec-11 14:00N 35°33' E 140°00'0 0.1
2017-Dec-11 13:30N 35°33' E 139°60'0 0.1
2017-Dec-11 13:00N 35°33' E 139°60'0 0.1
2017-Dec-11 12:30N 35°33' E 139°60'0 0.3
2017-Dec-11 11:55N 35°33' E 139°60'0 0.0
2017-Dec-11 11:28N 35°33' E 139°60'0 0.1
2017-Dec-11 11:00N 35°33' E 139°60'0 0.2
2017-Dec-11 10:30N 35°33' E 139°60'0 0.1
2017-Dec-11 09:48N 35°32' E 139°60'0 0.1
2017-Dec-11 09:30N 35°32' E 139°60'0 0.1
2017-Dec-11 09:00N 35°32' E 139°60'0 0.0
2017-Dec-11 08:30N 35°32' E 139°60'0 0.1
2017-Dec-11 08:00N 35°32' E 139°60'0 0.0
2017-Dec-11 07:30N 35°32' E 139°60'0 0.0
2017-Dec-11 07:00N 35°32' E 139°60'0 0.0
2017-Dec-11 06:30N 35°32' E 139°60'0 0.0
2017-Dec-11 06:00N 35°32' E 139°60'0 0.1
2017-Dec-11 05:30N 35°32' E 139°59'0 0.1
2017-Dec-11 05:00N 35°32' E 139°60'0 0.0
2017-Dec-11 04:30N 35°32' E 139°60'0 0.0
2017-Dec-11 04:00N 35°32' E 139°60'0 0.0
2017-Dec-11 03:30N 35°32' E 139°60'0 0.0
2017-Dec-11 03:00N 35°32' E 139°60'0 0.0
2017-Dec-11 02:31N 35°32' E 139°60'0 0.1
2017-Dec-11 02:00N 35°32' E 139°60'0 0.0
2017-Dec-11 01:30N 35°32' E 139°60'0 0.1
2017-Dec-11 01:01N 35°32' E 139°60'0 0.0
2017-Dec-11 00:30N 35°32' E 139°60'0 0.2
2017-Dec-11 00:01N 35°32' E 139°59'0 0.0
2017-Dec-10 23:30N 35°32' E 139°59'0 0.0
2017-Dec-10 23:00N 35°32' E 139°59'0 0.0
2017-Dec-10 22:30N 35°32' E 139°59'0 0.0
2017-Dec-10 22:00N 35°32' E 139°59'0 0.0
2017-Dec-10 21:30N 35°32' E 139°59'0 0.0
2017-Dec-10 21:00N 35°32' E 139°59'0 0.0
2017-Dec-10 20:29N 35°32' E 139°59'0 0.0
2017-Dec-10 20:00N 35°32' E 139°59'0 0.0
2017-Dec-10 19:30N 35°32' E 139°59'0 0.0
2017-Dec-10 19:00N 35°32' E 139°59'0 0.0
2017-Dec-10 18:30N 35°32' E 139°59'0 0.0
2017-Dec-10 17:58N 35°32' E 139°59'0 0.5
2017-Dec-10 17:30N 35°32' E 139°59'3 5.4
2017-Dec-10 17:00N 35°31' E 139°56'612.1
2017-Dec-10 16:30N 35°27' E 139°50'612.6
2017-Dec-10 16:00N 35°23' E 139°45'611.5
2017-Dec-10 15:31N 35°17' E 139°46'611.4
2017-Dec-10 15:00N 35°11' E 139°47'4 8.3
2017-Dec-10 14:30N 35°07' E 139°45'5 9.3
2017-Dec-10 14:00N 35°03' E 139°43'5 9.7
2017-Dec-10 13:30N 34°58' E 139°41'5 9.8
2017-Dec-10 12:59N 34°54' E 139°45'5 9.9
2017-Dec-10 12:30N 34°50' E 139°48'23 2.9
2017-Dec-10 04:28N 34°29' E 139°60'1 1.8
2017-Dec-10 03:58N 34°29' E 139°58'3 1.7
2017-Dec-10 02:04N 34°28' E 139°55'1 3.6
2017-Dec-10 01:53N 34°28' E 139°55'10 6.0
2017-Dec-10 00:13N 34°38' E 139°59'5 3.4
2017-Dec-09 22:47N 34°34' E 139°55'1 3.6
2017-Dec-09 22:30N 34°33' E 139°55'2 3.4
2017-Dec-09 22:00N 34°32' E 139°53'3 0.9
2017-Dec-09 18:00N 34°35' E 139°55'2 2.7
2017-Dec-09 17:25N 34°34' E 139°53'1 2.7
2017-Dec-09 17:00N 34°33' E 139°52'2 2.7
2017-Dec-09 16:24N 34°32' E 139°51'1 2.7
2017-Dec-09 15:56N 34°32' E 139°49'1 2.2
2017-Dec-09 15:30N 34°32' E 139°50'4 2.5
2017-Dec-09 13:52N 34°31' E 139°55'1 4.0
2017-Dec-09 13:31N 34°31' E 139°54'1 2.1
2017-Dec-09 12:54N 34°30' E 139°53'3 3.4
2017-Dec-09 12:00N 34°30' E 139°49'3 5.0
2017-Dec-09 11:29N 34°30' E 139°52'4 7.4
2017-Dec-09 11:00N 34°30' E 139°56'1 1.3
2017-Dec-09 10:30N 34°29' E 139°57'2 4.1
2017-Dec-09 09:57N 34°29' E 139°54'2 4.4
2017-Dec-09 09:30N 34°28' E 139°52'2 3.2
2017-Dec-09 08:50N 34°27' E 139°50'1 3.3
2017-Dec-09 08:24N 34°27' E 139°51'2 3.9
2017-Dec-09 08:00N 34°27' E 139°53'1 1.1
2017-Dec-09 06:46N 34°27' E 139°55'0 1.2
2017-Dec-09 06:28N 34°27' E 139°55'2 2.5
2017-Dec-09 05:28N 34°27' E 139°58'1 2.0
2017-Dec-09 04:55N 34°26' E 139°58'17 1.4
2017-Dec-08 16:52N 34°23' E 139°37'512.9
2017-Dec-08 16:28N 34°20' E 139°32'1513.0
2017-Dec-08 15:19N 34°16' E 139°15'515.3
2017-Dec-08 15:00N 34°17' E 139°09'2913.3
2017-Dec-08 12:49N 34°21' E 138°34'413.9
2017-Dec-08 12:30N 34°21' E 138°29'4 8.3
2017-Dec-08 12:00N 34°22' E 138°24'813.4
2017-Dec-08 11:26N 34°22' E 138°15'613.3
2017-Dec-08 10:58N 34°23' E 138°07'713.4
2017-Dec-08 10:28N 34°24' E 137°59'1413.6
2017-Dec-08 09:28N 34°26' E 137°43'713.3
2017-Dec-08 08:58N 34°26' E 137°35'612.8
2017-Dec-08 08:30N 34°26' E 137°28'1013.1
2017-Dec-08 07:44N 34°27' E 137°15'2112.0
2017-Dec-08 05:57N 34°38' E 136°53'612.8
2017-Dec-08 05:30N 34°42' E 136°48'612.7
2017-Dec-08 05:00N 34°48' E 136°46'612.5
2017-Dec-08 04:30N 34°54' E 136°46'612.4
2017-Dec-08 04:00N 34°60' E 136°49'1 2.1
2017-Dec-08 03:30N 34°60' E 136°51'0 0.0
2017-Dec-08 02:57N 34°60' E 136°51'0 0.0
2017-Dec-08 02:27N 34°60' E 136°51'0 0.0
2017-Dec-08 01:57N 34°60' E 136°51'0 0.0
2017-Dec-08 01:27N 34°60' E 136°51'0 0.0
2017-Dec-08 01:00N 34°60' E 136°51'0 0.0
2017-Dec-08 00:30N 34°60' E 136°51'0 0.0
2017-Dec-07 23:57N 34°60' E 136°51'0 0.0
2017-Dec-07 23:27N 34°60' E 136°51'0 0.0
2017-Dec-07 23:00N 34°60' E 136°51'0 0.0
2017-Dec-07 22:27N 34°60' E 136°51'0 0.0
2017-Dec-07 22:00N 34°60' E 136°51'0 0.0
2017-Dec-07 21:30N 34°60' E 136°51'0 0.0
2017-Dec-07 20:57N 34°60' E 136°51'0 0.0
2017-Dec-07 20:27N 34°60' E 136°51'0 0.0
2017-Dec-07 19:57N 34°60' E 136°51'0 0.0
2017-Dec-07 19:27N 34°60' E 136°51'0 0.0
2017-Dec-07 19:00N 34°60' E 136°51'0 0.0
2017-Dec-07 18:27N 34°60' E 136°51'0 0.0
2017-Dec-07 17:57N 34°60' E 136°51'0 0.0
2017-Dec-07 17:27N 34°60' E 136°51'0 0.0
2017-Dec-07 17:01N 34°60' E 136°51'0 0.0
2017-Dec-07 16:27N 34°60' E 136°51'0 0.0
2017-Dec-07 16:00N 34°60' E 136°51'0 0.0
2017-Dec-07 15:30N 34°60' E 136°51'0 0.0
2017-Dec-07 14:57N 34°60' E 136°51'0 0.0
2017-Dec-07 14:27N 34°60' E 136°51'0 0.0
2017-Dec-07 13:57N 34°60' E 136°51'0 0.0
2017-Dec-07 13:27N 34°60' E 136°51'0 0.0
2017-Dec-07 12:57N 34°60' E 136°51'0 0.0
2017-Dec-07 12:27N 34°60' E 136°51'0 0.0
2017-Dec-07 11:57N 34°60' E 136°51'0 0.0
2017-Dec-07 11:27N 34°60' E 136°51'0 0.0
2017-Dec-07 10:57N 34°60' E 136°51'0 0.0
2017-Dec-07 10:27N 34°60' E 136°51'0 0.0
2017-Dec-07 09:57N 34°60' E 136°51'0 0.0
2017-Dec-07 09:30N 34°60' E 136°51'0 0.0
2017-Dec-07 09:00N 34°60' E 136°51'0 0.0
2017-Dec-07 08:27N 34°60' E 136°51'0 0.0
2017-Dec-07 07:57N 34°60' E 136°51'0 0.0
2017-Dec-07 07:27N 34°60' E 136°51'0 0.0
2017-Dec-07 07:00N 34°60' E 136°51'0 0.0
2017-Dec-07 06:27N 34°60' E 136°51'0 0.0
2017-Dec-07 06:00N 34°60' E 136°51'0 0.0
2017-Dec-07 05:24N 34°60' E 136°51'0 0.0
2017-Dec-07 05:00N 34°60' E 136°51'0 0.0
2017-Dec-07 04:15N 34°60' E 136°51'0 0.0
2017-Dec-07 03:58N 34°60' E 136°51'0 0.0
2017-Dec-07 03:30N 34°60' E 136°51'0 0.0
2017-Dec-07 03:00N 34°60' E 136°51'0 0.0
2017-Dec-07 02:27N 34°60' E 136°51'0 0.0
2017-Dec-07 01:57N 34°60' E 136°51'0 0.0
2017-Dec-07 01:27N 34°60' E 136°51'0 0.0
2017-Dec-07 00:57N 34°60' E 136°51'0 0.0
2017-Dec-07 00:27N 34°60' E 136°51'0 0.0
2017-Dec-06 23:57N 34°60' E 136°51'0 0.9
2017-Dec-06 23:30N 35°00' E 136°50'4 7.1
2017-Dec-06 23:00N 34°57' E 136°48'4 8.8
2017-Dec-06 22:30N 34°54' E 136°45'0 0.7
2017-Dec-06 21:54N 34°54' E 136°44'0 0.0
2017-Dec-06 21:30N 34°54' E 136°44'0 0.0
2017-Dec-06 21:00N 34°54' E 136°44'  
2017-Dec-04 10:29N 41°38' E 141°20'713.9
2017-Dec-04 10:00N 41°38' E 141°11'714.2
2017-Dec-04 09:30N 41°38' E 141°01'612.6
2017-Dec-04 09:00N 41°39' E 140°53'613.0
2017-Dec-04 08:30N 41°38' E 140°44'713.8
2017-Dec-04 08:00N 41°32' E 140°40'714.4
2017-Dec-04 07:30N 41°28' E 140°33'714.9
2017-Dec-04 07:00N 41°24' E 140°24'714.4
2017-Dec-04 06:30N 41°20' E 140°16'4812.7
2017-Dec-04 02:44N 41°14' E 139°13'314.1
2017-Dec-04 02:30N 41°15' E 139°08'713.9
2017-Dec-04 02:00N 41°17' E 138°60'814.1
2017-Dec-04 01:28N 41°19' E 138°50'  

Dump ship's entire track history